sensor_id;sensor_type;location;lat;lon;timestamp;temperature;humidity
8939;DHT22;4504;48.810;9.172;2024-03-08T00:02:08;4.70;99.90
8939;DHT22;4504;48.810;9.172;2024-03-08T00:04:35;4.80;99.90
8939;DHT22;4504;48.810;9.172;2024-03-08T00:07:02;4.80;99.90
8939;DHT22;4504;48.810;9.172;2024-03-08T00:09:29;4.70;99.90
8939;DHT22;4504;48.810;9.172;2024-03-08T00:11:56;4.70;99.90
8939;DHT22;4504;48.810;9.172;2024-03-08T00:14:25;4.70;99.90
8939;DHT22;4504;48.810;9.172;2024-03-08T00:16:52;4.60;99.90
8939;DHT22;4504;48.810;9.172;2024-03-08T00:19:20;4.40;99.90
8939;DHT22;4504;48.810;9.172;2024-03-08T00:21:46;4.50;99.90
8939;DHT22;4504;48.810;9.172;2024-03-08T00:24:13;4.60;99.90
8939;DHT22;4504;48.810;9.172;2024-03-08T00:26:40;4.50;99.90
8939;DHT22;4504;48.810;9.172;2024-03-08T00:29:09;4.50;99.90
8939;DHT22;4504;48.810;9.172;2024-03-08T00:31:37;4.50;99.90
8939;DHT22;4504;48.810;9.172;2024-03-08T00:34:04;4.40;99.90
8939;DHT22;4504;48.810;9.172;2024-03-08T00:36:31;4.40;99.90
8939;DHT22;4504;48.810;9.172;2024-03-08T00:38:58;4.40;99.90
8939;DHT22;4504;48.810;9.172;2024-03-08T00:41:26;4.40;99.90
8939;DHT22;4504;48.810;9.172;2024-03-08T00:43:53;4.30;99.90
8939;DHT22;4504;48.810;9.172;2024-03-08T00:46:20;4.30;99.90
8939;DHT22;4504;48.810;9.172;2024-03-08T00:48:49;4.30;99.90
8939;DHT22;4504;48.810;9.172;2024-03-08T00:51:16;4.30;99.90
8939;DHT22;4504;48.810;9.172;2024-03-08T00:53:43;4.30;99.90
8939;DHT22;4504;48.810;9.172;2024-03-08T00:56:10;4.30;99.90
8939;DHT22;4504;48.810;9.172;2024-03-08T00:58:37;4.20;99.90
8939;DHT22;4504;48.810;9.172;2024-03-08T01:01:04;4.30;99.90
8939;DHT22;4504;48.810;9.172;2024-03-08T01:03:31;4.30;99.90
8939;DHT22;4504;48.810;9.172;2024-03-08T01:06:01;4.30;99.90
8939;DHT22;4504;48.810;9.172;2024-03-08T01:08:28;4.20;99.90
8939;DHT22;4504;48.810;9.172;2024-03-08T01:10:55;4.20;99.90
8939;DHT22;4504;48.810;9.172;2024-03-08T01:13:22;4.20;99.90
8939;DHT22;4504;48.810;9.172;2024-03-08T01:15:49;4.20;99.90
8939;DHT22;4504;48.810;9.172;2024-03-08T01:18:16;4.20;99.90
8939;DHT22;4504;48.810;9.172;2024-03-08T01:20:45;4.20;99.90
8939;DHT22;4504;48.810;9.172;2024-03-08T01:23:13;4.20;99.90
8939;DHT22;4504;48.810;9.172;2024-03-08T01:25:40;4.10;99.90
8939;DHT22;4504;48.810;9.172;2024-03-08T01:28:09;4.10;99.90
8939;DHT22;4504;48.810;9.172;2024-03-08T01:30:36;4.10;99.90
8939;DHT22;4504;48.810;9.172;2024-03-08T01:33:04;4.10;99.90
8939;DHT22;4504;48.810;9.172;2024-03-08T01:35:31;4.10;99.90
8939;DHT22;4504;48.810;9.172;2024-03-08T01:37:58;4.00;99.90
8939;DHT22;4504;48.810;9.172;2024-03-08T01:40:27;4.00;99.90
8939;DHT22;4504;48.810;9.172;2024-03-08T01:42:55;4.00;99.90
8939;DHT22;4504;48.810;9.172;2024-03-08T01:45:22;4.00;99.90
8939;DHT22;4504;48.810;9.172;2024-03-08T01:47:50;4.00;99.90
8939;DHT22;4504;48.810;9.172;2024-03-08T01:50:17;3.90;99.90
8939;DHT22;4504;48.810;9.172;2024-03-08T01:52:45;3.90;99.90
8939;DHT22;4504;48.810;9.172;2024-03-08T01:55:13;3.90;99.90
8939;DHT22;4504;48.810;9.172;2024-03-08T01:57:43;3.80;99.90
8939;DHT22;4504;48.810;9.172;2024-03-08T02:00:11;3.80;99.90
8939;DHT22;4504;48.810;9.172;2024-03-08T02:02:40;3.80;99.90
8939;DHT22;4504;48.810;9.172;2024-03-08T02:05:09;3.80;99.90
8939;DHT22;4504;48.810;9.172;2024-03-08T02:07:36;3.80;99.90
8939;DHT22;4504;48.810;9.172;2024-03-08T02:10:03;3.70;99.90
8939;DHT22;4504;48.810;9.172;2024-03-08T02:12:30;3.80;99.90
8939;DHT22;4504;48.810;9.172;2024-03-08T02:14:58;3.80;99.90
8939;DHT22;4504;48.810;9.172;2024-03-08T02:17:25;3.80;99.90
8939;DHT22;4504;48.810;9.172;2024-03-08T02:19:52;3.80;99.90
8939;DHT22;4504;48.810;9.172;2024-03-08T02:22:20;3.80;99.90
8939;DHT22;4504;48.810;9.172;2024-03-08T02:24:47;3.80;99.90
8939;DHT22;4504;48.810;9.172;2024-03-08T02:27:15;3.80;99.90
8939;DHT22;4504;48.810;9.172;2024-03-08T02:29:49;3.80;99.90
8939;DHT22;4504;48.810;9.172;2024-03-08T02:32:17;3.80;99.90
8939;DHT22;4504;48.810;9.172;2024-03-08T02:34:44;3.80;99.90
8939;DHT22;4504;48.810;9.172;2024-03-08T02:37:11;3.80;99.90
8939;DHT22;4504;48.810;9.172;2024-03-08T02:39:39;3.80;99.90
8939;DHT22;4504;48.810;9.172;2024-03-08T02:42:07;3.80;99.90
8939;DHT22;4504;48.810;9.172;2024-03-08T02:44:34;3.60;99.90
8939;DHT22;4504;48.810;9.172;2024-03-08T02:47:01;3.60;99.90
8939;DHT22;4504;48.810;9.172;2024-03-08T02:49:28;3.50;99.90
8939;DHT22;4504;48.810;9.172;2024-03-08T02:51:55;3.50;99.90
8939;DHT22;4504;48.810;9.172;2024-03-08T02:54:22;3.50;99.90
8939;DHT22;4504;48.810;9.172;2024-03-08T02:56:51;3.40;99.90
8939;DHT22;4504;48.810;9.172;2024-03-08T02:59:18;3.30;99.90
8939;DHT22;4504;48.810;9.172;2024-03-08T03:01:45;3.40;99.90
8939;DHT22;4504;48.810;9.172;2024-03-08T03:04:12;3.40;99.90
8939;DHT22;4504;48.810;9.172;2024-03-08T03:06:39;3.40;99.90
8939;DHT22;4504;48.810;9.172;2024-03-08T03:09:06;3.40;99.90
8939;DHT22;4504;48.810;9.172;2024-03-08T03:11:33;3.30;99.90
8939;DHT22;4504;48.810;9.172;2024-03-08T03:14:01;3.30;99.90
8939;DHT22;4504;48.810;9.172;2024-03-08T03:16:28;3.40;99.90
8939;DHT22;4504;48.810;9.172;2024-03-08T03:18:55;3.30;99.90
8939;DHT22;4504;48.810;9.172;2024-03-08T03:21:22;3.20;99.90
8939;DHT22;4504;48.810;9.172;2024-03-08T03:23:49;3.20;99.90
8939;DHT22;4504;48.810;9.172;2024-03-08T03:26:16;3.20;99.90
8939;DHT22;4504;48.810;9.172;2024-03-08T03:28:44;3.10;99.90
8939;DHT22;4504;48.810;9.172;2024-03-08T03:31:12;3.10;99.90
8939;DHT22;4504;48.810;9.172;2024-03-08T03:33:40;3.10;99.90
8939;DHT22;4504;48.810;9.172;2024-03-08T03:36:07;3.00;99.90
8939;DHT22;4504;48.810;9.172;2024-03-08T03:38:35;3.00;99.90
8939;DHT22;4504;48.810;9.172;2024-03-08T03:41:03;3.00;99.90
8939;DHT22;4504;48.810;9.172;2024-03-08T03:43:35;3.00;99.90
8939;DHT22;4504;48.810;9.172;2024-03-08T03:46:06;3.00;99.90
8939;DHT22;4504;48.810;9.172;2024-03-08T03:48:35;3.00;99.90
8939;DHT22;4504;48.810;9.172;2024-03-08T03:51:02;3.00;99.90
8939;DHT22;4504;48.810;9.172;2024-03-08T03:53:29;3.00;99.90
8939;DHT22;4504;48.810;9.172;2024-03-08T03:55:56;3.00;99.90
8939;DHT22;4504;48.810;9.172;2024-03-08T03:58:23;3.10;99.90
8939;DHT22;4504;48.810;9.172;2024-03-08T04:00:50;3.00;99.90
8939;DHT22;4504;48.810;9.172;2024-03-08T04:03:17;3.00;99.90
8939;DHT22;4504;48.810;9.172;2024-03-08T04:05:46;3.00;99.90
8939;DHT22;4504;48.810;9.172;2024-03-08T04:08:13;3.10;99.90
8939;DHT22;4504;48.810;9.172;2024-03-08T04:10:40;3.00;99.90
8939;DHT22;4504;48.810;9.172;2024-03-08T04:13:07;3.10;99.90
8939;DHT22;4504;48.810;9.172;2024-03-08T04:15:35;3.00;99.90
8939;DHT22;4504;48.810;9.172;2024-03-08T04:18:03;3.00;99.90
8939;DHT22;4504;48.810;9.172;2024-03-08T04:20:30;3.00;99.90
8939;DHT22;4504;48.810;9.172;2024-03-08T04:22:59;3.00;99.90
8939;DHT22;4504;48.810;9.172;2024-03-08T04:25:26;3.00;99.90
8939;DHT22;4504;48.810;9.172;2024-03-08T04:27:53;3.00;99.90
8939;DHT22;4504;48.810;9.172;2024-03-08T04:30:20;3.00;99.90
8939;DHT22;4504;48.810;9.172;2024-03-08T04:32:48;3.00;99.90
8939;DHT22;4504;48.810;9.172;2024-03-08T04:35:15;2.90;99.90
8939;DHT22;4504;48.810;9.172;2024-03-08T04:37:42;3.00;99.90
8939;DHT22;4504;48.810;9.172;2024-03-08T04:40:12;3.00;99.90
8939;DHT22;4504;48.810;9.172;2024-03-08T04:42:40;3.00;99.90
8939;DHT22;4504;48.810;9.172;2024-03-08T04:45:09;2.90;99.90
8939;DHT22;4504;48.810;9.172;2024-03-08T04:47:36;2.90;99.90
8939;DHT22;4504;48.810;9.172;2024-03-08T04:50:04;2.90;99.90
8939;DHT22;4504;48.810;9.172;2024-03-08T04:52:31;2.90;99.90
8939;DHT22;4504;48.810;9.172;2024-03-08T04:54:58;2.90;99.90
8939;DHT22;4504;48.810;9.172;2024-03-08T04:57:26;2.90;99.90
8939;DHT22;4504;48.810;9.172;2024-03-08T04:59:53;3.10;99.90
8939;DHT22;4504;48.810;9.172;2024-03-08T05:02:20;3.10;99.90
8939;DHT22;4504;48.810;9.172;2024-03-08T05:04:48;3.00;99.90
8939;DHT22;4504;48.810;9.172;2024-03-08T05:07:15;3.00;99.90
8939;DHT22;4504;48.810;9.172;2024-03-08T05:09:42;2.90;99.90
8939;DHT22;4504;48.810;9.172;2024-03-08T05:12:17;2.90;99.90
8939;DHT22;4504;48.810;9.172;2024-03-08T05:14:45;3.00;99.90
8939;DHT22;4504;48.810;9.172;2024-03-08T05:17:15;3.00;99.90
8939;DHT22;4504;48.810;9.172;2024-03-08T05:19:42;3.00;99.90
8939;DHT22;4504;48.810;9.172;2024-03-08T05:22:09;3.00;99.90
8939;DHT22;4504;48.810;9.172;2024-03-08T05:24:36;3.00;99.90
8939;DHT22;4504;48.810;9.172;2024-03-08T05:27:03;2.90;99.90
8939;DHT22;4504;48.810;9.172;2024-03-08T05:29:30;2.90;99.90
8939;DHT22;4504;48.810;9.172;2024-03-08T05:31:59;3.00;99.90
8939;DHT22;4504;48.810;9.172;2024-03-08T05:34:26;2.90;99.90
8939;DHT22;4504;48.810;9.172;2024-03-08T05:36:54;2.90;99.90
8939;DHT22;4504;48.810;9.172;2024-03-08T05:39:21;2.90;99.90
8939;DHT22;4504;48.810;9.172;2024-03-08T05:41:49;2.90;99.90
8939;DHT22;4504;48.810;9.172;2024-03-08T05:44:16;3.00;99.90
8939;DHT22;4504;48.810;9.172;2024-03-08T05:46:43;3.00;99.90
8939;DHT22;4504;48.810;9.172;2024-03-08T05:49:13;3.10;99.90
8939;DHT22;4504;48.810;9.172;2024-03-08T05:51:40;3.10;99.90
8939;DHT22;4504;48.810;9.172;2024-03-08T05:54:10;3.00;99.90
8939;DHT22;4504;48.810;9.172;2024-03-08T05:56:38;3.00;99.90
8939;DHT22;4504;48.810;9.172;2024-03-08T05:59:07;2.90;99.90
8939;DHT22;4504;48.810;9.172;2024-03-08T06:01:35;2.90;99.90
8939;DHT22;4504;48.810;9.172;2024-03-08T06:04:03;2.80;99.90
8939;DHT22;4504;48.810;9.172;2024-03-08T06:06:31;2.80;99.90
8939;DHT22;4504;48.810;9.172;2024-03-08T06:08:59;2.80;99.90
8939;DHT22;4504;48.810;9.172;2024-03-08T06:11:26;2.90;99.90
8939;DHT22;4504;48.810;9.172;2024-03-08T06:13:54;2.90;99.90
8939;DHT22;4504;48.810;9.172;2024-03-08T06:16:25;2.80;99.90
8939;DHT22;4504;48.810;9.172;2024-03-08T06:18:55;2.90;99.90
8939;DHT22;4504;48.810;9.172;2024-03-08T06:21:23;2.90;99.90
8939;DHT22;4504;48.810;9.172;2024-03-08T06:23:54;2.90;99.90
8939;DHT22;4504;48.810;9.172;2024-03-08T06:26:23;2.90;99.90
8939;DHT22;4504;48.810;9.172;2024-03-08T06:28:50;3.00;99.90
8939;DHT22;4504;48.810;9.172;2024-03-08T06:31:17;3.00;99.90
8939;DHT22;4504;48.810;9.172;2024-03-08T06:33:45;3.00;99.90
8939;DHT22;4504;48.810;9.172;2024-03-08T06:36:12;3.00;99.90
8939;DHT22;4504;48.810;9.172;2024-03-08T06:38:40;3.00;99.90
8939;DHT22;4504;48.810;9.172;2024-03-08T06:41:10;3.10;99.90
8939;DHT22;4504;48.810;9.172;2024-03-08T06:43:41;3.20;99.90
8939;DHT22;4504;48.810;9.172;2024-03-08T06:46:08;3.20;99.90
8939;DHT22;4504;48.810;9.172;2024-03-08T06:48:35;3.30;99.90
8939;DHT22;4504;48.810;9.172;2024-03-08T06:51:04;3.30;99.90
8939;DHT22;4504;48.810;9.172;2024-03-08T06:53:31;3.40;99.90
8939;DHT22;4504;48.810;9.172;2024-03-08T06:56:00;3.50;99.90
8939;DHT22;4504;48.810;9.172;2024-03-08T06:58:29;3.60;99.90
8939;DHT22;4504;48.810;9.172;2024-03-08T07:00:56;3.70;99.90
8939;DHT22;4504;48.810;9.172;2024-03-08T07:03:26;3.70;99.90
8939;DHT22;4504;48.810;9.172;2024-03-08T07:05:55;3.80;99.90
8939;DHT22;4504;48.810;9.172;2024-03-08T07:08:22;3.90;99.90
8939;DHT22;4504;48.810;9.172;2024-03-08T07:10:49;3.90;99.90
8939;DHT22;4504;48.810;9.172;2024-03-08T07:13:16;4.00;99.90
8939;DHT22;4504;48.810;9.172;2024-03-08T07:15:45;4.00;99.90
8939;DHT22;4504;48.810;9.172;2024-03-08T07:18:12;4.10;99.90
8939;DHT22;4504;48.810;9.172;2024-03-08T07:20:41;4.10;99.90
8939;DHT22;4504;48.810;9.172;2024-03-08T07:23:09;4.00;99.90
8939;DHT22;4504;48.810;9.172;2024-03-08T07:27:23;4.10;99.90
8939;DHT22;4504;48.810;9.172;2024-03-08T07:29:50;4.20;99.90
8939;DHT22;4504;48.810;9.172;2024-03-08T07:32:18;4.20;99.90
8939;DHT22;4504;48.810;9.172;2024-03-08T07:34:47;4.30;99.90
8939;DHT22;4504;48.810;9.172;2024-03-08T07:37:16;4.40;99.90
8939;DHT22;4504;48.810;9.172;2024-03-08T07:39:43;4.30;99.90
8939;DHT22;4504;48.810;9.172;2024-03-08T07:42:10;4.40;99.90
8939;DHT22;4504;48.810;9.172;2024-03-08T07:44:39;4.50;99.90
8939;DHT22;4504;48.810;9.172;2024-03-08T07:47:06;4.40;99.90
8939;DHT22;4504;48.810;9.172;2024-03-08T07:49:35;4.50;99.90
8939;DHT22;4504;48.810;9.172;2024-03-08T07:52:03;4.50;99.90
8939;DHT22;4504;48.810;9.172;2024-03-08T07:54:33;4.50;99.90
8939;DHT22;4504;48.810;9.172;2024-03-08T07:57:00;4.40;99.90
8939;DHT22;4504;48.810;9.172;2024-03-08T07:59:28;4.50;99.90
8939;DHT22;4504;48.810;9.172;2024-03-08T08:01:57;4.50;99.90
8939;DHT22;4504;48.810;9.172;2024-03-08T08:04:25;4.50;99.90
8939;DHT22;4504;48.810;9.172;2024-03-08T08:06:53;4.40;99.90
8939;DHT22;4504;48.810;9.172;2024-03-08T08:09:20;4.50;99.90
8939;DHT22;4504;48.810;9.172;2024-03-08T08:11:54;4.50;99.90
8939;DHT22;4504;48.810;9.172;2024-03-08T08:14:21;4.50;99.90
8939;DHT22;4504;48.810;9.172;2024-03-08T08:16:48;4.50;99.90
8939;DHT22;4504;48.810;9.172;2024-03-08T08:19:19;4.50;99.90
8939;DHT22;4504;48.810;9.172;2024-03-08T08:21:46;4.50;99.90
8939;DHT22;4504;48.810;9.172;2024-03-08T08:24:14;4.50;99.90
8939;DHT22;4504;48.810;9.172;2024-03-08T08:26:41;4.50;99.90
8939;DHT22;4504;48.810;9.172;2024-03-08T08:29:10;4.60;99.90
8939;DHT22;4504;48.810;9.172;2024-03-08T08:31:37;4.60;99.90
8939;DHT22;4504;48.810;9.172;2024-03-08T08:34:04;4.60;99.90
8939;DHT22;4504;48.810;9.172;2024-03-08T08:36:33;4.60;99.90
8939;DHT22;4504;48.810;9.172;2024-03-08T08:38:59;4.60;99.90
8939;DHT22;4504;48.810;9.172;2024-03-08T08:41:29;4.70;99.90
8939;DHT22;4504;48.810;9.172;2024-03-08T08:43:56;4.70;99.90
8939;DHT22;4504;48.810;9.172;2024-03-08T08:46:22;4.80;99.90
8939;DHT22;4504;48.810;9.172;2024-03-08T08:48:49;4.80;99.90
8939;DHT22;4504;48.810;9.172;2024-03-08T08:51:16;4.80;99.90
8939;DHT22;4504;48.810;9.172;2024-03-08T08:53:45;4.90;99.90
8939;DHT22;4504;48.810;9.172;2024-03-08T08:56:13;5.00;99.90
8939;DHT22;4504;48.810;9.172;2024-03-08T08:58:41;5.00;99.90
8939;DHT22;4504;48.810;9.172;2024-03-08T09:01:08;5.10;99.90
8939;DHT22;4504;48.810;9.172;2024-03-08T09:03:37;5.10;99.90
8939;DHT22;4504;48.810;9.172;2024-03-08T09:06:06;5.10;99.90
8939;DHT22;4504;48.810;9.172;2024-03-08T09:08:35;5.20;99.90
8939;DHT22;4504;48.810;9.172;2024-03-08T09:11:04;5.10;99.90
8939;DHT22;4504;48.810;9.172;2024-03-08T09:13:31;5.20;99.90
8939;DHT22;4504;48.810;9.172;2024-03-08T09:15:59;5.30;99.90
8939;DHT22;4504;48.810;9.172;2024-03-08T09:18:26;5.40;99.90
8939;DHT22;4504;48.810;9.172;2024-03-08T09:20:53;5.30;99.90
8939;DHT22;4504;48.810;9.172;2024-03-08T09:23:20;5.40;99.90
8939;DHT22;4504;48.810;9.172;2024-03-08T09:25:47;5.30;99.90
8939;DHT22;4504;48.810;9.172;2024-03-08T09:28:15;5.30;99.90
8939;DHT22;4504;48.810;9.172;2024-03-08T09:30:42;5.30;99.90
8939;DHT22;4504;48.810;9.172;2024-03-08T09:33:10;5.20;99.90
8939;DHT22;4504;48.810;9.172;2024-03-08T09:35:37;5.20;99.90
8939;DHT22;4504;48.810;9.172;2024-03-08T09:38:04;5.30;99.90
8939;DHT22;4504;48.810;9.172;2024-03-08T09:40:31;5.30;99.90
8939;DHT22;4504;48.810;9.172;2024-03-08T09:42:58;5.40;99.90
8939;DHT22;4504;48.810;9.172;2024-03-08T09:45:26;5.40;99.90
8939;DHT22;4504;48.810;9.172;2024-03-08T09:47:55;5.50;99.90
8939;DHT22;4504;48.810;9.172;2024-03-08T09:50:23;5.50;99.90
8939;DHT22;4504;48.810;9.172;2024-03-08T09:52:52;5.60;99.90
8939;DHT22;4504;48.810;9.172;2024-03-08T09:55:19;5.70;99.90
8939;DHT22;4504;48.810;9.172;2024-03-08T09:57:51;5.80;99.90
8939;DHT22;4504;48.810;9.172;2024-03-08T10:00:34;5.70;99.90
8939;DHT22;4504;48.810;9.172;2024-03-08T10:03:01;5.80;99.90
8939;DHT22;4504;48.810;9.172;2024-03-08T10:05:30;5.90;99.90
8939;DHT22;4504;48.810;9.172;2024-03-08T10:07:58;5.90;99.90
8939;DHT22;4504;48.810;9.172;2024-03-08T10:10:25;5.90;99.90
8939;DHT22;4504;48.810;9.172;2024-03-08T10:12:52;5.80;99.90
8939;DHT22;4504;48.810;9.172;2024-03-08T10:15:19;5.90;99.90
8939;DHT22;4504;48.810;9.172;2024-03-08T10:17:48;6.00;99.90
8939;DHT22;4504;48.810;9.172;2024-03-08T10:20:15;6.10;99.90
8939;DHT22;4504;48.810;9.172;2024-03-08T10:22:42;6.10;99.90
8939;DHT22;4504;48.810;9.172;2024-03-08T10:25:10;6.30;99.90
8939;DHT22;4504;48.810;9.172;2024-03-08T10:27:38;6.30;99.90
8939;DHT22;4504;48.810;9.172;2024-03-08T10:30:10;6.20;99.90
8939;DHT22;4504;48.810;9.172;2024-03-08T10:32:38;6.30;99.90
8939;DHT22;4504;48.810;9.172;2024-03-08T10:35:08;6.40;99.90
8939;DHT22;4504;48.810;9.172;2024-03-08T10:37:44;6.60;99.90
8939;DHT22;4504;48.810;9.172;2024-03-08T10:40:16;6.60;99.90
8939;DHT22;4504;48.810;9.172;2024-03-08T10:42:51;6.50;99.90
8939;DHT22;4504;48.810;9.172;2024-03-08T10:45:29;6.60;99.90
8939;DHT22;4504;48.810;9.172;2024-03-08T10:48:08;6.80;99.90
8939;DHT22;4504;48.810;9.172;2024-03-08T10:50:38;6.70;99.90
8939;DHT22;4504;48.810;9.172;2024-03-08T10:53:06;6.80;99.90
8939;DHT22;4504;48.810;9.172;2024-03-08T10:55:33;6.80;99.90
8939;DHT22;4504;48.810;9.172;2024-03-08T10:58:03;7.00;99.90
8939;DHT22;4504;48.810;9.172;2024-03-08T11:00:30;6.90;99.90
8939;DHT22;4504;48.810;9.172;2024-03-08T11:02:58;7.00;99.90
8939;DHT22;4504;48.810;9.172;2024-03-08T11:05:35;7.20;99.90
8939;DHT22;4504;48.810;9.172;2024-03-08T11:08:15;7.30;99.90
8939;DHT22;4504;48.810;9.172;2024-03-08T11:10:48;7.00;99.90
8939;DHT22;4504;48.810;9.172;2024-03-08T11:13:32;6.90;99.90
8939;DHT22;4504;48.810;9.172;2024-03-08T11:15:59;7.10;99.90
8939;DHT22;4504;48.810;9.172;2024-03-08T11:18:26;7.20;99.90
8939;DHT22;4504;48.810;9.172;2024-03-08T11:20:54;7.30;99.90
8939;DHT22;4504;48.810;9.172;2024-03-08T11:23:24;7.30;99.90
8939;DHT22;4504;48.810;9.172;2024-03-08T11:25:51;7.40;99.90
8939;DHT22;4504;48.810;9.172;2024-03-08T11:28:20;7.80;99.90
8939;DHT22;4504;48.810;9.172;2024-03-08T11:31:23;8.10;99.90
8939;DHT22;4504;48.810;9.172;2024-03-08T11:33:50;8.50;99.90
8939;DHT22;4504;48.810;9.172;2024-03-08T11:36:21;8.80;99.90
8939;DHT22;4504;48.810;9.172;2024-03-08T11:38:50;9.40;99.90
8939;DHT22;4504;48.810;9.172;2024-03-08T11:41:19;10.10;99.90
8939;DHT22;4504;48.810;9.172;2024-03-08T11:43:47;10.10;99.90
8939;DHT22;4504;48.810;9.172;2024-03-08T11:46:15;9.50;99.90
8939;DHT22;4504;48.810;9.172;2024-03-08T11:48:43;9.30;99.90
8939;DHT22;4504;48.810;9.172;2024-03-08T11:51:11;10.20;99.90
8939;DHT22;4504;48.810;9.172;2024-03-08T11:53:39;10.50;99.90
8939;DHT22;4504;48.810;9.172;2024-03-08T11:56:09;10.90;99.90
8939;DHT22;4504;48.810;9.172;2024-03-08T11:58:37;11.20;98.80
8939;DHT22;4504;48.810;9.172;2024-03-08T12:01:04;11.40;99.10
8939;DHT22;4504;48.810;9.172;2024-03-08T12:03:32;11.70;98.40
8939;DHT22;4504;48.810;9.172;2024-03-08T12:06:00;11.40;98.20
8939;DHT22;4504;48.810;9.172;2024-03-08T12:08:30;11.80;98.00
8939;DHT22;4504;48.810;9.172;2024-03-08T12:10:58;12.30;97.50
8939;DHT22;4504;48.810;9.172;2024-03-08T12:13:27;12.30;96.80
8939;DHT22;4504;48.810;9.172;2024-03-08T12:15:56;12.40;95.90
8939;DHT22;4504;48.810;9.172;2024-03-08T12:18:25;12.60;95.40
8939;DHT22;4504;48.810;9.172;2024-03-08T12:21:04;11.70;95.60
8939;DHT22;4504;48.810;9.172;2024-03-08T12:23:33;11.50;96.90
8939;DHT22;4504;48.810;9.172;2024-03-08T12:26:09;11.70;97.20
8939;DHT22;4504;48.810;9.172;2024-03-08T12:28:40;12.00;96.20
8939;DHT22;4504;48.810;9.172;2024-03-08T12:31:07;12.20;95.20
8939;DHT22;4504;48.810;9.172;2024-03-08T12:33:36;11.50;96.20
8939;DHT22;4504;48.810;9.172;2024-03-08T12:36:03;12.10;96.90
8939;DHT22;4504;48.810;9.172;2024-03-08T12:38:33;12.70;95.90
8939;DHT22;4504;48.810;9.172;2024-03-08T12:41:01;12.30;95.10
8939;DHT22;4504;48.810;9.172;2024-03-08T12:43:28;12.50;95.80
8939;DHT22;4504;48.810;9.172;2024-03-08T12:45:58;12.50;94.80
8939;DHT22;4504;48.810;9.172;2024-03-08T12:48:26;12.70;95.20
8939;DHT22;4504;48.810;9.172;2024-03-08T12:50:53;12.70;95.00
8939;DHT22;4504;48.810;9.172;2024-03-08T12:53:20;12.60;95.60
8939;DHT22;4504;48.810;9.172;2024-03-08T12:55:48;13.10;95.00
8939;DHT22;4504;48.810;9.172;2024-03-08T12:58:15;13.00;94.60
8939;DHT22;4504;48.810;9.172;2024-03-08T13:00:43;13.10;93.60
8939;DHT22;4504;48.810;9.172;2024-03-08T13:03:11;12.70;94.20
8939;DHT22;4504;48.810;9.172;2024-03-08T13:05:38;12.00;95.00
8939;DHT22;4504;48.810;9.172;2024-03-08T13:08:07;11.90;96.60
8939;DHT22;4504;48.810;9.172;2024-03-08T13:10:38;12.70;96.40
8939;DHT22;4504;48.810;9.172;2024-03-08T13:13:05;13.10;94.20
8939;DHT22;4504;48.810;9.172;2024-03-08T13:15:32;12.70;94.40
8939;DHT22;4504;48.810;9.172;2024-03-08T13:17:59;12.60;94.50
8939;DHT22;4504;48.810;9.172;2024-03-08T13:20:28;13.10;94.70
8939;DHT22;4504;48.810;9.172;2024-03-08T13:22:55;13.10;92.80
8939;DHT22;4504;48.810;9.172;2024-03-08T13:25:24;12.80;94.70
8939;DHT22;4504;48.810;9.172;2024-03-08T13:27:52;13.00;94.50
8939;DHT22;4504;48.810;9.172;2024-03-08T13:30:19;13.20;94.30
8939;DHT22;4504;48.810;9.172;2024-03-08T13:32:52;13.80;93.00
8939;DHT22;4504;48.810;9.172;2024-03-08T13:35:19;14.00;92.20
8939;DHT22;4504;48.810;9.172;2024-03-08T13:37:53;13.80;92.10
8939;DHT22;4504;48.810;9.172;2024-03-08T13:40:20;13.60;92.20
8939;DHT22;4504;48.810;9.172;2024-03-08T13:42:47;13.80;92.10
8939;DHT22;4504;48.810;9.172;2024-03-08T13:45:16;13.90;92.10
8939;DHT22;4504;48.810;9.172;2024-03-08T13:47:48;14.00;91.30
8939;DHT22;4504;48.810;9.172;2024-03-08T13:50:17;13.40;92.10
8939;DHT22;4504;48.810;9.172;2024-03-08T13:52:47;13.70;91.90
8939;DHT22;4504;48.810;9.172;2024-03-08T13:55:18;13.90;91.60
8939;DHT22;4504;48.810;9.172;2024-03-08T13:57:45;13.70;91.20
8939;DHT22;4504;48.810;9.172;2024-03-08T14:00:13;13.70;90.90
8939;DHT22;4504;48.810;9.172;2024-03-08T14:02:40;13.80;91.80
8939;DHT22;4504;48.810;9.172;2024-03-08T14:05:08;14.10;91.30
8939;DHT22;4504;48.810;9.172;2024-03-08T14:07:35;14.20;90.70
8939;DHT22;4504;48.810;9.172;2024-03-08T14:10:02;13.80;91.30
8939;DHT22;4504;48.810;9.172;2024-03-08T14:12:31;13.60;91.50
8939;DHT22;4504;48.810;9.172;2024-03-08T14:14:58;14.00;91.90
8939;DHT22;4504;48.810;9.172;2024-03-08T14:17:26;14.20;90.50
8939;DHT22;4504;48.810;9.172;2024-03-08T14:19:53;14.40;90.90
8939;DHT22;4504;48.810;9.172;2024-03-08T14:22:21;14.30;90.90
8939;DHT22;4504;48.810;9.172;2024-03-08T14:24:49;13.80;91.20
8939;DHT22;4504;48.810;9.172;2024-03-08T14:27:17;13.50;91.00
8939;DHT22;4504;48.810;9.172;2024-03-08T14:29:45;13.50;91.40
8939;DHT22;4504;48.810;9.172;2024-03-08T14:32:13;13.80;91.60
8939;DHT22;4504;48.810;9.172;2024-03-08T14:34:40;13.90;91.10
8939;DHT22;4504;48.810;9.172;2024-03-08T14:37:09;13.80;90.60
8939;DHT22;4504;48.810;9.172;2024-03-08T14:39:37;13.90;91.70
8939;DHT22;4504;48.810;9.172;2024-03-08T14:42:04;13.80;90.70
8939;DHT22;4504;48.810;9.172;2024-03-08T14:44:34;13.50;91.10
8939;DHT22;4504;48.810;9.172;2024-03-08T14:47:03;13.90;91.50
8939;DHT22;4504;48.810;9.172;2024-03-08T14:49:31;14.30;91.10
8939;DHT22;4504;48.810;9.172;2024-03-08T14:52:01;14.30;90.40
8939;DHT22;4504;48.810;9.172;2024-03-08T14:54:28;14.70;90.30
8939;DHT22;4504;48.810;9.172;2024-03-08T14:56:55;14.70;90.00
8939;DHT22;4504;48.810;9.172;2024-03-08T14:59:22;14.60;89.50
8939;DHT22;4504;48.810;9.172;2024-03-08T15:01:51;14.50;90.50
8939;DHT22;4504;48.810;9.172;2024-03-08T15:04:19;14.10;90.50
8939;DHT22;4504;48.810;9.172;2024-03-08T15:06:46;14.20;90.70
8939;DHT22;4504;48.810;9.172;2024-03-08T15:09:14;14.20;90.50
8939;DHT22;4504;48.810;9.172;2024-03-08T15:11:45;14.30;90.50
8939;DHT22;4504;48.810;9.172;2024-03-08T15:14:12;14.20;90.70
8939;DHT22;4504;48.810;9.172;2024-03-08T15:16:39;13.90;91.10
8939;DHT22;4504;48.810;9.172;2024-03-08T15:19:08;14.10;91.30
8939;DHT22;4504;48.810;9.172;2024-03-08T15:21:39;14.40;90.40
8939;DHT22;4504;48.810;9.172;2024-03-08T15:24:06;14.60;90.40
8939;DHT22;4504;48.810;9.172;2024-03-08T15:26:40;14.50;90.70
8939;DHT22;4504;48.810;9.172;2024-03-08T15:29:09;14.80;90.70
8939;DHT22;4504;48.810;9.172;2024-03-08T15:31:38;14.50;90.40
8939;DHT22;4504;48.810;9.172;2024-03-08T15:34:06;14.50;90.10
8939;DHT22;4504;48.810;9.172;2024-03-08T15:36:34;14.60;90.20
8939;DHT22;4504;48.810;9.172;2024-03-08T15:39:02;14.70;90.30
8939;DHT22;4504;48.810;9.172;2024-03-08T15:41:35;14.30;90.90
8939;DHT22;4504;48.810;9.172;2024-03-08T15:44:02;14.40;90.50
8939;DHT22;4504;48.810;9.172;2024-03-08T15:46:29;14.40;90.90
8939;DHT22;4504;48.810;9.172;2024-03-08T15:48:56;14.40;90.70
8939;DHT22;4504;48.810;9.172;2024-03-08T15:51:23;14.00;90.80
8939;DHT22;4504;48.810;9.172;2024-03-08T15:53:50;14.00;90.80
8939;DHT22;4504;48.810;9.172;2024-03-08T15:56:22;13.60;91.40
8939;DHT22;4504;48.810;9.172;2024-03-08T15:58:49;13.10;92.40
8939;DHT22;4504;48.810;9.172;2024-03-08T16:01:16;13.00;92.80
8939;DHT22;4504;48.810;9.172;2024-03-08T16:03:45;12.70;93.30
8939;DHT22;4504;48.810;9.172;2024-03-08T16:06:14;12.40;94.40
8939;DHT22;4504;48.810;9.172;2024-03-08T16:08:41;12.20;94.70
8939;DHT22;4504;48.810;9.172;2024-03-08T16:11:08;12.00;95.10
8939;DHT22;4504;48.810;9.172;2024-03-08T16:13:37;11.80;95.40
8939;DHT22;4504;48.810;9.172;2024-03-08T16:16:05;11.70;95.40
8939;DHT22;4504;48.810;9.172;2024-03-08T16:18:32;11.70;95.70
8939;DHT22;4504;48.810;9.172;2024-03-08T16:21:00;11.70;95.90